Impacts TAF Board INFO
FOR SITUATIONAL AWARENESS. NOT TO BE USED FOR FLIGHT PLANNING PURPOSES.
IDs:

KSLC - Salt Lake City Intl, UT, US

Issued at 2320 UTC 27 May 2018
Updated at 0133 UTC 28 May 2018
Potential Impact None Slight Moderate High
Time0054Z 28/02Z 28/03Z 28/04Z 28/05Z 28/06Z 28/07Z 28/08Z 28/09Z 28/10Z 28/11Z 28/12Z 28/13Z 28/14Z>>
Type OBS PRVL PRVL PRVL PRVL PRVL PRVL PRVL PRVL PRVL PRVL PRVL PRVL PRVL
VIS 10 >6 >6 >6 >6 >6 >6 >6 >6 >6 >6 >6 >6 >6
CIG 150 100 120 120 120 120 120 120 120 120 120 120 120 120
Cover BKN BKN BKN BKN BKN BKN BKN BKN BKN BKN BKN BKN BKN BKN
FltCat VFR VFR VFR VFR VFR VFR VFR VFR VFR VFR VFR VFR VFR VFR
WX -- VCSH -- -- -- -- -- -- -- -- -- -- -- --
WDir VRB 340 160 160 160 160 160 160 160 160 160 160 160 160
WSpd 6 7 6 6 6 6 6 6 6 6 6 6 6 6
WGst -- -- -- -- -- -- -- -- -- -- -- -- -- --

Raw TAF
KSLC 272320Z 2800/2906 34007KT P6SM VCSH SCT060 BKN100
  FM280300 16006KT P6SM SCT060 BKN120
  FM281700 32007KT P6SM VCSH SCT040 BKN080
  FM290300 15007KT P6SM SCT060 BKN120


Raw METAR
KSLC 280054Z VRB06KT 10SM FEW085 SCT120 BKN150 BKN230 17/11 A2998 RMK VIRGA SH DSNT NE
KSLC 272354Z 24003KT 10SM FEW070 FEW090 SCT130 BKN180 BKN230 16/11 A3000 RMK VIRGA CB DSNT E-SE AND NW TCU DSNT N
KSLC 272254Z 01006KT 10SM FEW045 FEW070 SCT095 BKN150 BKN230 15/12 A2999 RMK WSHFT 2205 RAE28 TSE39 CB DSNT SE AND NW VCSH
KSLC 272242Z 36007KT 10SM FEW030 FEW060 SCT095 BKN150 BKN230 14/12 A2998 RMK WSHFT 2205 RAE28 TSE39 CB DSNT N VCSH

METAR Board
Radar Display
Forecast Discussion

FOR SITUATIONAL AWARENESS. NOT TO BE USED FOR FLIGHT PLANNING PURPOSES.